Time;durP1;ratioP1;P1;durP2;ratioP2;P2;SDS_P1;SDS_P2;PMS_P1;PMS_P2;Temp;Humidity;BMP_temperature;BMP_pressure;BME280_temperature;BME280_humidity;BME280_pressure;Samples;Min_cycle;Max_cycle;Signal;HPM_P1;HPM_P2
2022/08/20 00:00:21;;;;;;;;;4.00;2.00;;;;;21.33;54.11;101342.56;5088175;27;45577;-67
2022/08/20 00:02:50;;;;;;;;;1.33;1.00;;;;;21.40;54.15;101365.16;5086096;28;45273;-65
2022/08/20 00:05:40;;;;;;;;;2.67;2.67;;;;;21.40;54.14;101376.03;5091435;28;45215;-67
2022/08/20 00:08:07;;;;;;;;;2.67;1.00;;;;;21.40;54.11;101383.25;5086428;27;45240;-67
2022/08/20 00:10:35;;;;;;;;;5.67;3.00;;;;;21.25;54.11;101348.97;5089547;28;45552;-65
2022/08/20 00:13:02;;;;;;;;;1.33;1.33;;;;;21.31;54.27;101357.97;5090145;27;45204;-66
2022/08/20 00:15:30;;;;;;;;;2.00;2.00;;;;;21.36;54.02;101357.94;5090903;28;45204;-66
2022/08/20 00:17:56;;;;;;;;;3.33;2.67;;;;;21.33;54.15;101356.16;5094779;27;44985;-64
2022/08/20 00:20:25;;;;;;;;;4.00;3.00;;;;;21.32;54.20;101359.78;5091386;27;45704;-66
2022/08/20 00:22:51;;;;;;;;;3.00;1.00;;;;;21.25;54.01;101346.25;5091203;28;45029;-65
2022/08/20 00:25:17;;;;;;;;;3.00;1.00;;;;;21.31;54.17;101360.69;5091014;28;44961;-65
2022/08/20 00:27:42;;;;;;;;;2.00;2.00;;;;;21.28;53.82;101366.16;5090409;28;46441;-66
2022/08/20 00:30:10;;;;;;;;;2.00;2.00;;;;;20.98;53.84;101302.09;5090889;28;46259;-66
2022/08/20 00:32:51;;;;;;;;;4.67;3.00;;;;;21.30;53.73;101367.06;5086734;28;45270;-65
2022/08/20 00:35:20;;;;;;;;;4.33;3.00;;;;;21.30;54.17;101372.50;5091958;27;44898;-66
2022/08/20 00:37:46;;;;;;;;;2.33;1.33;;;;;21.28;54.29;101378.84;5092144;27;45308;-65
2022/08/20 00:40:15;;;;;;;;;2.67;1.67;;;;;21.24;54.23;101371.63;5088670;27;45227;-65
2022/08/20 00:42:43;;;;;;;;;4.00;3.00;;;;;21.22;54.61;101374.38;5091699;27;45201;-65
2022/08/20 00:45:10;;;;;;;;;1.00;1.00;;;;;21.23;54.16;101367.09;5090803;28;45098;-65
2022/08/20 00:47:39;;;;;;;;;3.00;2.00;;;;;21.14;54.20;101370.81;5091917;27;45183;-65
2022/08/20 00:50:06;;;;;;;;;3.00;1.67;;;;;21.06;54.03;101367.25;5091222;28;45755;-65
2022/08/20 00:52:32;;;;;;;;;4.33;3.00;;;;;21.06;54.68;101367.25;5091541;27;45119;-65
2022/08/20 00:55:00;;;;;;;;;3.00;3.00;;;;;20.99;54.32;101350.97;5085785;28;45210;-66
2022/08/20 00:57:33;;;;;;;;;2.00;2.00;;;;;20.86;54.67;101335.69;5091282;28;45350;-66
2022/08/20 01:00:01;;;;;;;;;3.00;1.33;;;;;21.01;54.60;101350.06;5091482;28;45148;-66
2022/08/20 01:02:29;;;;;;;;;0.33;0.33;;;;;20.98;54.79;101359.13;5088313;28;45117;-65
2022/08/20 01:04:55;;;;;;;;;3.33;2.00;;;;;20.97;54.91;101365.50;5091032;27;45373;-65
2022/08/20 01:07:30;;;;;;;;;2.33;1.00;;;;;20.96;54.79;101372.72;5090388;28;45358;-65
2022/08/20 01:09:56;;;;;;;;;2.67;1.33;;;;;20.94;54.65;101370.94;5088794;28;46056;-66
2022/08/20 01:12:22;;;;;;;;;2.33;1.33;;;;;20.72;54.97;101330.34;5092265;27;45186;-64
2022/08/20 01:14:48;;;;;;;;;5.00;4.00;;;;;20.92;54.73;101361.88;5094967;27;45088;-64
2022/08/20 01:17:21;;;;;;;;;8.67;2.00;;;;;20.87;54.99;101367.38;5092906;28;45155;-64
2022/08/20 01:20:09;;;;;;;;;1.67;1.67;;;;;20.87;55.24;101364.66;5091792;27;46298;-66
2022/08/20 01:25:44;;;;;;;;;1.00;1.00;;;;;20.83;55.05;101361.97;5093065;28;44998;-66
2022/08/20 01:28:11;;;;;;;;;3.33;1.00;;;;;20.68;55.34;101335.81;5093932;28;45022;-66
2022/08/20 01:30:37;;;;;;;;;3.33;1.33;;;;;20.58;55.33;101333.09;5092615;27;45158;-64
2022/08/20 01:33:04;;;;;;;;;4.33;3.00;;;;;20.61;55.52;101346.66;5095160;28;45311;-64
2022/08/20 01:35:33;;;;;;;;;3.00;1.33;;;;;20.54;55.89;101324.97;5091618;27;45255;-65
2022/08/20 01:37:58;;;;;;;;;3.67;1.67;;;;;20.64;55.76;101359.34;5093455;28;45245;-65
2022/08/20 01:40:55;;;;;;;;;2.67;1.00;;;;;20.51;56.35;101369.34;5094072;28;45152;-65
2022/08/20 01:43:20;;;;;;;;;3.33;2.00;;;;;20.38;56.40;101341.34;5091118;27;45017;-65
2022/08/20 01:45:46;;;;;;;;;6.33;2.00;;;;;20.43;56.67;101369.38;5094164;27;45260;-65
2022/08/20 01:48:14;;;;;;;;;2.33;2.33;;;;;20.39;56.85;101377.50;5092552;28;45230;-64
2022/08/20 01:50:43;;;;;;;;;2.67;1.00;;;;;20.28;56.84;101363.09;5093228;28;44962;-65
2022/08/20 01:53:20;;;;;;;;;2.67;1.00;;;;;20.30;57.33;101380.28;5092046;28;45104;-65
2022/08/20 01:55:45;;;;;;;;;2.67;2.00;;;;;19.90;57.20;101308.09;5089025;28;45158;-65
2022/08/20 01:58:11;;;;;;;;;4.00;2.67;;;;;20.33;57.05;101380.28;5092999;27;45120;-65
2022/08/20 02:00:36;;;;;;;;;2.00;2.00;;;;;20.34;56.97;101377.56;5092074;27;45345;-65
2022/08/20 02:03:02;;;;;;;;;2.67;2.33;;;;;20.24;57.09;101362.19;5089936;28;45272;-66
2022/08/20 02:05:29;;;;;;;;;5.33;1.00;;;;;20.42;56.83;101380.22;5090962;27;45138;-65
2022/08/20 02:07:54;;;;;;;;;4.33;1.00;;;;;20.44;56.69;101378.41;5093603;28;45176;-66
2022/08/20 02:10:22;;;;;;;;;3.00;2.00;;;;;20.46;56.84;101375.69;5093148;28;45662;-66
2022/08/20 02:12:48;;;;;;;;;7.00;3.67;;;;;20.47;56.74;101382.94;5083976;28;45138;-65
2022/08/20 02:15:13;;;;;;;;;0.00;0.00;;;;;20.36;56.58;101381.16;5086294;28;45221;-64
2022/08/20 02:17:40;;;;;;;;;2.00;1.33;;;;;20.25;56.84;101362.19;5087295;28;45238;-66
2022/08/20 02:20:13;;;;;;;;;7.67;1.67;;;;;20.34;56.53;101382.06;5090441;27;45828;-66
2022/08/20 02:22:48;;;;;;;;;1.67;1.00;;;;;20.38;56.96;101389.31;5091063;27;45277;-65
2022/08/20 02:25:15;;;;;;;;;6.67;2.00;;;;;20.37;57.04;101391.09;5092750;28;45822;-66
2022/08/20 02:27:44;;;;;;;;;5.67;1.00;;;;;20.30;57.11;101392.03;5092303;28;45282;-65
2022/08/20 02:30:19;;;;;;;;;1.00;1.00;;;;;20.15;57.16;101382.13;5092869;28;45656;-65
2022/08/20 02:32:46;;;;;;;;;4.00;2.00;;;;;20.16;57.49;101385.75;5093511;28;45148;-64
2022/08/20 02:35:12;;;;;;;;;2.00;2.00;;;;;20.09;57.85;101386.69;5093379;28;45394;-64
2022/08/20 02:37:42;;;;;;;;;1.33;1.33;;;;;20.00;57.73;101388.50;5093523;28;45167;-64
2022/08/20 02:40:12;;;;;;;;;3.67;2.00;;;;;19.95;58.01;101403.00;5090558;27;45165;-66
2022/08/20 02:42:38;;;;;;;;;4.00;4.00;;;;;19.92;58.11;101394.88;5092708;28;45024;-65
2022/08/20 02:45:04;;;;;;;;;5.67;2.67;;;;;19.91;57.99;101391.22;5092977;28;46398;-65
2022/08/20 02:47:30;;;;;;;;;6.00;2.00;;;;;19.83;58.18;101402.09;5092924;28;45723;-65
2022/08/20 02:49:56;;;;;;;;;4.33;3.00;;;;;19.81;58.59;101390.34;5091575;27;45517;-65
2022/08/20 02:52:22;;;;;;;;;2.00;1.00;;;;;19.85;58.15;101399.41;5093104;28;45217;-65
2022/08/20 02:54:49;;;;;;;;;3.00;1.00;;;;;19.85;58.15;101396.69;5092899;28;45125;-64
2022/08/20 02:57:19;;;;;;;;;3.00;1.67;;;;;19.85;58.12;101396.69;5091094;27;45203;-64
2022/08/20 02:59:45;;;;;;;;;3.67;1.33;;;;;19.83;58.36;101399.41;5092774;28;45133;-65
2022/08/20 03:02:11;;;;;;;;;8.67;4.00;;;;;19.75;58.68;101393.09;5092442;28;45191;-64
2022/08/20 03:04:36;;;;;;;;;5.00;2.00;;;;;19.82;58.49;101403.00;5091760;28;45173;-64
2022/08/20 03:07:04;;;;;;;;;10.67;10.67;;;;;19.78;58.67;101400.28;5092470;27;45034;-66
2022/08/20 03:09:29;;;;;;;;;1.33;1.33;;;;;19.81;58.48;101397.56;5093297;28;45888;-65
2022/08/20 03:11:55;;;;;;;;;3.33;2.00;;;;;19.78;58.75;101408.41;5090285;27;45290;-66
2022/08/20 03:14:20;;;;;;;;;2.33;2.00;;;;;19.74;58.76;101393.94;5092925;28;46020;-64
2022/08/20 03:16:46;;;;;;;;;1.00;1.00;;;;;19.76;59.08;101403.00;5092594;28;45224;-65
2022/08/20 03:19:12;;;;;;;;;4.67;2.67;;;;;19.73;58.96;101394.84;5092320;28;45089;-66
2022/08/20 03:21:38;;;;;;;;;4.33;2.00;;;;;19.55;59.33;101387.66;5089385;28;45233;-65
2022/08/20 03:24:04;;;;;;;;;4.00;2.00;;;;;19.51;59.58;101383.13;5090761;28;45020;-65
2022/08/20 03:26:29;;;;;;;;;2.00;2.00;;;;;19.63;59.70;101407.53;5092694;28;45270;-64
2022/08/20 03:28:54;;;;;;;;;2.67;2.00;;;;;19.60;59.74;101391.25;5092975;27;45730;-66
2022/08/20 03:31:20;;;;;;;;;1.67;1.67;;;;;19.60;59.73;101402.09;5092355;27;45082;-64
2022/08/20 03:33:45;;;;;;;;;1.00;1.00;;;;;19.58;60.05;101403.00;5089588;27;45242;-65
2022/08/20 03:36:10;;;;;;;;;2.33;2.33;;;;;19.17;60.12;101337.03;5092319;28;45295;-65
2022/08/20 03:38:35;;;;;;;;;4.00;1.00;;;;;19.42;60.20;101394.88;5091810;27;46058;-64
2022/08/20 03:41:02;;;;;;;;;5.33;3.00;;;;;19.53;60.06;101405.69;5092591;27;45239;-65
2022/08/20 03:43:29;;;;;;;;;3.00;1.00;;;;;19.49;60.05;101407.50;5108156;27;45392;-65
2022/08/20 03:45:54;;;;;;;;;4.00;2.00;;;;;19.36;60.49;101392.16;5092492;27;45101;-65
2022/08/20 03:48:20;;;;;;;;;4.67;1.67;;;;;19.39;60.69;101405.69;5092272;28;45520;-64
2022/08/20 03:50:47;;;;;;;;;3.33;1.00;;;;;19.39;60.50;101405.69;5092194;28;45209;-64
2022/08/20 03:53:14;;;;;;;;;3.33;1.33;;;;;19.40;60.69;101415.66;5085788;28;45102;-63
2022/08/20 03:55:41;;;;;;;;;5.67;2.00;;;;;19.40;60.49;101412.94;5092305;27;45112;-66
2022/08/20 03:58:08;;;;;;;;;3.00;1.00;;;;;19.36;60.53;101416.53;5091859;27;45274;-65
2022/08/20 04:00:39;;;;;;;;;2.33;2.33;;;;;19.25;60.83;101421.94;5091743;27;45090;-65
2022/08/20 04:03:07;;;;;;;;;1.33;1.33;;;;;19.13;61.27;101397.53;5091426;28;45085;-65
2022/08/20 04:05:35;;;;;;;;;2.67;1.33;;;;;19.18;61.36;101416.53;5089495;28;45234;-64
2022/08/20 04:08:02;;;;;;;;;5.67;3.00;;;;;19.12;60.88;101411.97;5091423;27;45220;-64
2022/08/20 04:10:28;;;;;;;;;0.67;0.67;;;;;19.09;61.37;101410.19;5091872;27;45062;-65
2022/08/20 04:12:54;;;;;;;;;2.00;1.00;;;;;19.10;61.51;101417.38;5091391;27;45209;-65
2022/08/20 04:15:23;;;;;;;;;3.33;2.33;;;;;19.12;61.27;101414.69;5091580;28;45319;-64
2022/08/20 04:17:49;;;;;;;;;5.00;2.00;;;;;19.11;61.20;101412.91;5090516;28;45257;-63
2022/08/20 04:20:21;;;;;;;;;3.67;2.00;;;;;19.06;61.49;101414.69;5091364;28;45146;-64
2022/08/20 04:22:54;;;;;;;;;3.33;2.67;;;;;19.12;61.43;101417.41;5091182;27;45166;-64
2022/08/20 04:25:20;;;;;;;;;3.00;3.00;;;;;19.15;61.22;101417.41;5089950;28;44916;-65
2022/08/20 04:27:46;;;;;;;;;1.67;1.67;;;;;19.11;61.13;101411.09;5088945;28;46267;-63
2022/08/20 04:30:15;;;;;;;;;3.33;3.00;;;;;19.02;61.16;101399.31;5081015;28;45164;-64
2022/08/20 04:32:41;;;;;;;;;0.67;0.67;;;;;19.20;60.82;101414.72;5091791;28;45121;-64
2022/08/20 04:35:10;;;;;;;;;4.00;1.00;;;;;19.26;60.93;101415.63;5091893;28;45069;-64
2022/08/20 04:37:38;;;;;;;;;2.33;2.33;;;;;19.16;60.70;101402.97;5089195;27;46729;-65
2022/08/20 04:42:50;;;;;;;;;3.33;3.33;;;;;19.28;60.67;101426.47;5091082;27;45015;-63
2022/08/20 04:45:16;;;;;;;;;6.33;4.67;;;;;19.29;60.57;101412.91;5094198;28;44988;-64
2022/08/20 04:47:41;;;;;;;;;3.33;2.00;;;;;19.27;60.28;101416.50;5093451;28;45616;-64
2022/08/20 04:50:09;;;;;;;;;3.00;3.00;;;;;19.29;60.16;101410.22;5095147;28;44941;-65
2022/08/20 04:52:36;;;;;;;;;5.00;3.00;;;;;19.33;60.48;101417.41;5110153;27;45274;-64
2022/08/20 04:55:02;;;;;;;;;4.00;2.00;;;;;19.39;60.19;101423.78;5094225;28;45046;-64
2022/08/20 04:57:28;;;;;;;;;3.00;1.00;;;;;19.32;59.73;101401.19;5093365;28;45101;-64
2022/08/20 04:59:53;;;;;;;;;2.33;1.67;;;;;19.35;59.72;101409.28;5095249;28;45121;-65
2022/08/20 05:02:20;;;;;;;;;2.33;1.67;;;;;19.51;60.04;101427.38;5094339;27;45270;-64
2022/08/20 05:04:46;;;;;;;;;4.00;2.33;;;;;19.57;59.50;101433.69;5094827;28;44910;-64
2022/08/20 05:07:13;;;;;;;;;6.67;2.67;;;;;19.59;59.41;101429.19;5094756;28;45107;-64
2022/08/20 05:09:40;;;;;;;;;4.00;2.00;;;;;19.61;59.10;101425.56;5093938;28;44945;-66
2022/08/20 05:12:06;;;;;;;;;4.00;2.33;;;;;19.60;59.10;101441.84;5093785;28;45192;-65
2022/08/20 05:14:31;;;;;;;;;4.00;2.00;;;;;19.55;59.11;101443.63;5094232;28;45182;-63
2022/08/20 05:16:57;;;;;;;;;1.00;1.00;;;;;19.50;59.06;101439.13;5091401;28;45389;-63
2022/08/20 05:19:22;;;;;;;;;2.33;1.67;;;;;19.53;59.06;101438.22;5091354;28;45401;-64
2022/08/20 05:21:51;;;;;;;;;3.00;3.00;;;;;19.51;59.21;101437.31;5092763;28;45100;-65
2022/08/20 05:24:16;;;;;;;;;5.33;1.67;;;;;19.50;59.06;101433.72;5094551;28;45147;-64
2022/08/20 05:26:41;;;;;;;;;1.67;1.67;;;;;19.50;59.11;101433.72;5093893;28;47683;-65
2022/08/20 05:29:07;;;;;;;;;2.33;2.33;;;;;19.48;58.92;101440.03;5094292;28;44980;-65
2022/08/20 05:31:34;;;;;;;;;2.33;2.00;;;;;19.46;58.92;101441.84;5090865;28;44944;-64
2022/08/20 05:34:08;;;;;;;;;1.67;1.67;;;;;19.28;58.92;101416.53;5094992;27;45375;-65
2022/08/20 05:36:34;;;;;;;;;1.00;1.00;;;;;19.42;59.01;101445.44;5092982;28;45516;-66
2022/08/20 05:38:59;;;;;;;;;6.00;1.00;;;;;19.31;59.18;101429.19;5091301;27;45409;-64
2022/08/20 05:41:27;;;;;;;;;5.33;4.33;;;;;19.39;59.21;101443.63;5091761;28;45154;-64
2022/08/20 05:43:52;;;;;;;;;4.00;3.00;;;;;19.40;59.21;101448.16;5089864;28;45279;-64
2022/08/20 05:46:18;;;;;;;;;4.00;1.67;;;;;19.02;59.00;101383.06;5091627;28;53867;-65
2022/08/20 05:48:43;;;;;;;;;5.33;2.00;;;;;19.38;58.92;101458.06;5094202;28;54332;-65
2022/08/20 05:51:08;;;;;;;;;2.00;2.00;;;;;19.33;59.21;101458.06;5093268;28;56463;-64
2022/08/20 05:53:34;;;;;;;;;1.67;1.67;;;;;19.34;59.56;101459.00;5094119;28;46084;-64
2022/08/20 05:56:00;;;;;;;;;1.00;1.00;;;;;19.29;59.31;101458.97;5092743;27;57935;-65
2022/08/20 05:58:29;;;;;;;;;1.00;1.00;;;;;19.24;59.44;101460.78;5093818;27;44924;-65
2022/08/20 06:00:55;;;;;;;;;3.33;3.00;;;;;19.01;60.01;101441.75;5091882;28;45077;-66
2022/08/20 06:06:06;;;;;;;;;4.00;4.00;;;;;19.22;59.88;101467.06;5091887;28;46393;-65
2022/08/20 06:08:31;;;;;;;;;4.00;3.00;;;;;19.15;59.74;101452.63;5093656;28;45071;-65
2022/08/20 06:10:57;;;;;;;;;3.00;2.33;;;;;19.23;59.65;101471.59;5094106;28;45528;-65
2022/08/20 06:13:22;;;;;;;;;7.00;5.00;;;;;19.15;59.61;101461.66;5094727;28;45115;-64
2022/08/20 06:15:47;;;;;;;;;3.00;2.00;;;;;19.25;59.83;101472.50;5092680;27;45554;-64
2022/08/20 06:18:13;;;;;;;;;9.33;4.00;;;;;19.21;59.73;101463.47;5092800;28;45125;-65
2022/08/20 06:20:39;;;;;;;;;2.00;2.00;;;;;19.26;59.87;101477.94;5093561;28;45236;-65
2022/08/20 06:23:04;;;;;;;;;2.33;2.33;;;;;19.23;59.82;101477.91;5093479;28;45332;-64
2022/08/20 06:25:30;;;;;;;;;4.00;3.00;;;;;19.23;59.83;101474.31;5092545;28;45741;-64
2022/08/20 06:27:56;;;;;;;;;5.00;2.00;;;;;19.24;59.50;101481.56;5090488;28;45341;-64
2022/08/20 06:30:22;;;;;;;;;5.33;3.67;;;;;19.12;59.86;101460.72;5093537;28;45046;-67
2022/08/20 06:32:49;;;;;;;;;3.67;3.00;;;;;19.15;60.17;101461.66;5091747;27;44838;-67
2022/08/20 06:35:15;;;;;;;;;6.67;5.00;;;;;19.28;59.85;101484.25;5092362;28;46572;-67
2022/08/20 06:37:41;;;;;;;;;9.33;6.00;;;;;19.22;59.81;101462.59;5092158;28;46170;-67
2022/08/20 06:40:15;;;;;;;;;11.00;4.67;;;;;19.31;59.76;101476.13;5093919;28;45000;-67
2022/08/20 06:42:42;;;;;;;;;3.00;3.00;;;;;18.90;59.74;101403.81;5093561;28;45462;-66
2022/08/20 06:45:13;;;;;;;;;3.00;2.00;;;;;19.28;59.80;101478.84;5084764;28;46021;-66
2022/08/20 06:47:40;;;;;;;;;3.33;3.33;;;;;19.34;59.61;101473.44;5092928;28;45194;-66
2022/08/20 06:50:09;;;;;;;;;1.67;1.67;;;;;19.37;59.72;101472.53;5092125;28;45178;-66
2022/08/20 06:52:36;;;;;;;;;5.33;3.00;;;;;19.46;59.28;101482.50;5093358;28;45124;-66
2022/08/20 06:55:02;;;;;;;;;2.33;2.33;;;;;19.46;59.57;101482.50;5091115;27;45176;-66
2022/08/20 06:57:27;;;;;;;;;5.67;3.00;;;;;19.49;59.62;101486.09;5093598;27;45093;-65
2022/08/20 06:59:53;;;;;;;;;3.00;3.00;;;;;19.52;59.48;101477.97;5093679;28;45022;-66
2022/08/20 07:02:19;;;;;;;;;5.00;3.00;;;;;19.54;59.27;101472.56;5093537;28;45068;-66
2022/08/20 07:04:44;;;;;;;;;9.00;5.00;;;;;19.65;59.26;101476.19;5091250;27;65833;-66
2022/08/20 07:07:16;;;;;;;;;8.67;5.67;;;;;19.70;59.05;101471.66;5090569;28;58109;-67
2022/08/20 07:09:42;;;;;;;;;7.00;6.00;;;;;19.73;58.66;101461.72;5093177;28;44991;-67
2022/08/20 07:12:08;;;;;;;;;7.00;3.67;;;;;19.78;58.71;101477.13;5089534;28;45117;-68
2022/08/20 07:14:34;;;;;;;;;4.00;3.00;;;;;19.83;58.52;101477.09;5090223;28;46049;-66
2022/08/20 07:17:02;;;;;;;;;2.00;1.00;;;;;19.87;58.67;101477.13;5092379;27;45123;-67
2022/08/20 07:19:27;;;;;;;;;4.00;2.00;;;;;19.73;58.84;101456.28;5091852;28;45188;-65
2022/08/20 07:21:53;;;;;;;;;3.67;2.33;;;;;19.86;58.78;101480.75;5091258;28;45366;-68
2022/08/20 07:24:18;;;;;;;;;3.00;3.00;;;;;19.71;58.75;101440.03;5091560;27;53051;-66
2022/08/20 07:26:44;;;;;;;;;3.33;3.00;;;;;19.87;59.02;101466.25;5091562;28;45133;-67
2022/08/20 07:29:10;;;;;;;;;4.67;2.33;;;;;19.91;58.96;101469.88;5092539;28;46202;-68
2022/08/20 07:34:19;;;;;;;;;7.33;4.33;;;;;20.04;58.69;101477.09;5089237;28;45210;-68
2022/08/20 07:36:47;;;;;;;;;2.33;2.33;;;;;20.13;58.62;101486.13;5091706;27;59795;-67
2022/08/20 07:39:13;;;;;;;;;3.67;3.00;;;;;20.12;58.70;101493.38;5092180;28;45294;-68
2022/08/20 07:41:38;;;;;;;;;5.33;4.00;;;;;20.20;58.54;101483.41;5085532;27;45794;-67
2022/08/20 07:44:04;;;;;;;;;5.00;3.00;;;;;20.30;58.24;101480.69;5089067;28;58565;-68
2022/08/20 07:46:30;;;;;;;;;3.33;3.33;;;;;20.34;57.98;101491.53;5090564;28;45068;-69
2022/08/20 07:48:55;;;;;;;;;6.67;3.00;;;;;20.32;57.88;101492.44;5092265;27;45067;-67
2022/08/20 07:51:21;;;;;;;;;3.33;3.33;;;;;20.29;57.93;101479.78;5092445;27;45069;-67
2022/08/20 07:53:49;;;;;;;;;2.67;2.00;;;;;20.39;57.81;101489.72;5091299;27;46090;-69
2022/08/20 07:56:18;;;;;;;;;1.33;0.67;;;;;20.44;57.54;101495.13;5091920;27;45365;-68
2022/08/20 07:58:50;;;;;;;;;5.67;3.00;;;;;20.31;57.75;101474.34;5091124;27;45172;-69
2022/08/20 08:01:27;;;;;;;;;3.33;3.33;;;;;20.55;57.57;101497.81;5090114;27;45173;-67
2022/08/20 08:03:52;;;;;;;;;3.67;3.67;;;;;20.65;57.16;101488.75;5089383;27;45423;-68
2022/08/20 08:06:20;;;;;;;;;6.33;4.00;;;;;20.89;56.63;101495.03;5090897;28;45118;-70
2022/08/20 08:08:47;;;;;;;;;6.33;5.00;;;;;21.16;56.50;101494.84;5091963;27;45381;-69
2022/08/20 08:11:12;;;;;;;;;5.67;3.67;;;;;21.38;56.00;101492.00;5091959;28;45244;-69
2022/08/20 08:13:40;;;;;;;;;7.33;2.67;;;;;21.34;55.42;101466.66;5091176;28;45951;-70
2022/08/20 08:16:08;;;;;;;;;5.00;3.33;;;;;21.60;55.29;101494.66;5091625;28;44988;-67
2022/08/20 08:18:43;;;;;;;;;4.33;2.67;;;;;21.56;55.15;101492.84;5091727;28;44979;-67
2022/08/20 08:21:11;;;;;;;;;2.00;0.67;;;;;21.60;55.33;101490.09;5085173;28;44999;-69
2022/08/20 08:23:39;;;;;;;;;5.33;3.00;;;;;21.63;55.03;101487.38;5088418;28;45183;-67
2022/08/20 08:26:05;;;;;;;;;4.33;2.67;;;;;21.71;55.22;101492.72;5083763;27;45418;-68
2022/08/20 08:28:31;;;;;;;;;4.00;4.00;;;;;21.86;55.06;101503.50;5091249;27;45149;-70
2022/08/20 08:30:57;;;;;;;;;5.00;4.00;;;;;21.95;54.58;101498.91;5093848;27;46274;-67
2022/08/20 08:33:29;;;;;;;;;2.33;2.33;;;;;22.02;54.06;101511.50;5074390;28;46952;-68
2022/08/20 08:35:58;;;;;;;;;4.33;2.67;;;;;22.06;54.28;101500.59;5092732;27;45287;-67
2022/08/20 08:38:24;;;;;;;;;6.67;3.67;;;;;21.86;54.02;101448.16;5087505;28;45215;-69
2022/08/20 08:40:52;;;;;;;;;6.00;2.67;;;;;22.27;53.51;101498.56;5091868;28;45113;-68
2022/08/20 08:43:21;;;;;;;;;2.00;2.00;;;;;22.35;53.26;101496.69;5085081;28;45237;-67
2022/08/20 08:45:53;;;;;;;;;5.50;4.50;;;;;22.13;52.80;101446.13;5088319;28;45003;-69
2022/08/20 08:48:18;;;;;;;;;2.33;2.33;;;;;22.44;52.55;101501.16;5085494;28;44995;-70
2022/08/20 08:50:49;;;;;;;;;2.00;2.00;;;;;22.52;52.45;101498.34;5090945;28;45142;-70
2022/08/20 08:53:19;;;;;;;;;1.00;1.00;;;;;22.60;51.46;101485.53;5091255;28;45369;-68
2022/08/20 08:55:45;;;;;;;;;2.67;2.00;;;;;22.63;50.73;101496.41;5090439;28;45135;-67
2022/08/20 08:58:10;;;;;;;;;5.00;2.00;;;;;22.58;50.84;101476.50;5095408;27;45373;-70
2022/08/20 09:00:36;;;;;;;;;2.33;1.33;;;;;22.70;50.73;101498.13;5091687;27;45110;-67
2022/08/20 09:03:08;;;;;;;;;3.00;2.00;;;;;22.74;51.09;101496.28;5090133;27;45107;-68
2022/08/20 09:05:58;;;;;;;;;10.33;5.67;;;;;22.83;51.03;101498.88;5089328;28;45114;-69
2022/08/20 09:08:28;;;;;;;;;3.00;3.00;;;;;22.91;51.35;101491.50;5087572;28;45087;-66
2022/08/20 09:10:54;;;;;;;;;6.33;2.33;;;;;22.84;50.40;101465.28;5089927;28;45324;-66
2022/08/20 09:13:19;;;;;;;;;37.00;32.25;;;;;22.89;48.88;101481.56;5088136;28;45618;-65
2022/08/20 09:15:45;;;;;;;;;3.00;2.67;;;;;22.79;48.59;101469.88;5090830;28;45121;-64
2022/08/20 09:18:10;;;;;;;;;1.67;1.00;;;;;22.93;48.86;101486.03;5091344;28;45259;-66
2022/08/20 09:20:36;;;;;;;;;3.67;3.00;;;;;23.04;49.04;101492.25;5091181;28;45180;-64
2022/08/20 09:23:04;;;;;;;;;2.33;2.33;;;;;23.12;48.92;101486.75;5083218;28;45940;-64
2022/08/20 09:25:29;;;;;;;;;4.00;2.00;;;;;23.25;48.91;101488.38;5087395;27;45114;-64
2022/08/20 09:27:55;;;;;;;;;3.33;2.00;;;;;23.33;48.43;101483.72;5086985;28;45706;-64
2022/08/20 09:30:20;;;;;;;;;3.67;3.00;;;;;23.49;47.15;101478.91;5088340;28;45341;-65
2022/08/20 09:32:46;;;;;;;;;6.00;3.67;;;;;23.64;46.40;101490.50;5090101;28;45418;-63
2022/08/20 09:35:12;;;;;;;;;3.33;1.33;;;;;23.54;47.10;101478.84;5090365;27;45360;-64
2022/08/20 09:37:38;;;;;;;;;2.00;2.00;;;;;23.55;46.75;101480.66;5085192;28;45215;-65
2022/08/20 09:40:05;;;;;;;;;4.67;2.00;;;;;23.67;46.16;101482.28;5092418;28;45270;-64
2022/08/20 09:42:33;;;;;;;;;4.00;1.00;;;;;23.67;45.55;101482.28;5093836;28;45225;-66
2022/08/20 09:44:59;;;;;;;;;5.00;1.33;;;;;23.71;44.65;101481.31;5086467;28;45429;-64
2022/08/20 09:47:25;;;;;;;;;2.00;2.00;;;;;23.84;44.55;101484.75;5090266;28;45314;-65
2022/08/20 09:49:51;;;;;;;;;2.67;2.67;;;;;23.91;44.85;101484.63;5092766;27;45150;-66
2022/08/20 09:52:27;;;;;;;;;3.67;2.00;;;;;23.99;44.67;101476.31;5093665;28;45713;-65
2022/08/20 09:54:58;;;;;;;;;5.00;1.67;;;;;23.98;44.08;101479.97;5094175;28;45078;-66
2022/08/20 09:57:25;;;;;;;;;2.00;2.00;;;;;23.96;43.96;101464.56;5093998;28;45118;-64
2022/08/20 09:59:55;;;;;;;;;5.00;3.00;;;;;23.95;43.85;101473.66;5093349;28;45541;-65
2022/08/20 10:02:21;;;;;;;;;2.00;2.00;;;;;23.79;43.69;101482.09;5093829;28;45178;-65
2022/08/20 10:04:47;;;;;;;;;3.00;3.00;;;;;23.58;44.12;101439.69;5092449;28;45165;-64
2022/08/20 10:07:12;;;;;;;;;2.67;2.00;;;;;23.84;44.50;101469.28;5092178;28;45070;-64
2022/08/20 10:09:37;;;;;;;;;0.67;0.67;;;;;23.85;44.54;101465.63;5090465;28;45446;-64
2022/08/20 10:12:03;;;;;;;;;2.00;2.00;;;;;24.02;44.31;101468.06;5090072;28;46170;-64
2022/08/20 10:14:30;;;;;;;;;2.33;2.00;;;;;23.89;43.80;101411.88;5091663;27;45116;-65
2022/08/20 10:16:56;;;;;;;;;9.00;7.33;;;;;24.18;43.04;101441.38;5090889;28;45338;-65
2022/08/20 10:19:22;;;;;;;;;2.67;1.00;;;;;24.25;43.02;101461.25;5082919;28;45713;-64
2022/08/20 10:21:50;;;;;;;;;4.33;2.00;;;;;24.15;42.05;101438.69;5089126;28;46203;-64
2022/08/20 10:24:16;;;;;;;;;0.00;0.00;;;;;24.26;40.34;101465.81;5082764;28;45380;-69
2022/08/20 10:26:42;;;;;;;;;2.33;1.00;;;;;24.29;40.06;101454.81;5073262;28;45507;-69
2022/08/20 10:29:11;;;;;;;;;2.33;2.33;;;;;24.28;40.32;101453.00;5070993;28;45733;-69
2022/08/20 10:31:36;;;;;;;;;2.67;1.00;;;;;24.33;40.39;101451.09;5080298;28;46000;-69
2022/08/20 10:34:01;;;;;;;;;5.00;2.00;;;;;23.97;40.99;101398.09;5085348;27;45277;-69
2022/08/20 10:36:27;;;;;;;;;2.00;2.00;;;;;24.40;41.13;101439.13;5091576;27;45401;-70
2022/08/20 10:38:52;;;;;;;;;2.33;2.00;;;;;24.54;40.94;101447.03;5094906;27;44953;-66
2022/08/20 10:41:18;;;;;;;;;4.33;2.67;;;;;24.56;40.67;101438.84;5091646;27;45690;-68
2022/08/20 10:43:44;;;;;;;;;1.00;1.00;;;;;24.49;39.48;101451.69;5087497;27;45356;-66
2022/08/20 10:46:09;;;;;;;;;1.00;0.00;;;;;24.35;39.33;101448.34;5084424;27;45500;-66
2022/08/20 10:48:35;;;;;;;;;3.00;1.33;;;;;24.19;39.64;101436.81;5080445;28;45398;-68
2022/08/20 10:51:00;;;;;;;;;4.67;3.00;;;;;24.11;39.39;101445.16;5092609;27;50365;-66
2022/08/20 10:53:25;;;;;;;;;7.67;2.00;;;;;24.21;40.03;101454.06;5085712;27;45246;-67
2022/08/20 10:55:52;;;;;;;;;1.00;1.00;;;;;24.26;39.89;101442.13;5088734;28;45109;-68
2022/08/20 10:58:17;;;;;;;;;1.00;1.00;;;;;24.36;40.21;101445.56;5096416;27;45129;-67
2022/08/20 11:00:44;;;;;;;;;3.00;3.00;;;;;24.48;40.40;101444.41;5092295;27;46197;-67
2022/08/20 11:03:09;;;;;;;;;5.67;3.00;;;;;24.55;40.02;101445.19;5090562;27;45052;-67
2022/08/20 11:05:35;;;;;;;;;8.00;6.00;;;;;24.65;40.33;101452.31;5094703;27;45165;-66
2022/08/20 11:08:02;;;;;;;;;3.00;3.00;;;;;24.78;40.12;101442.00;5084931;27;45456;-66
2022/08/20 11:10:29;;;;;;;;;5.67;3.00;;;;;24.95;40.07;101445.28;5089895;28;47964;-69
2022/08/20 11:12:55;;;;;;;;;1.33;1.00;;;;;25.02;39.56;101441.47;5086269;27;46054;-68
2022/08/20 11:15:21;;;;;;;;;4.00;2.00;;;;;24.80;39.23;101413.72;5090635;27;45277;-69
2022/08/20 11:17:46;;;;;;;;;5.67;3.00;;;;;25.00;39.30;101445.19;5089850;28;45239;-70
2022/08/20 11:20:16;;;;;;;;;2.33;2.33;;;;;24.97;39.28;101451.59;5089053;27;47653;-70
2022/08/20 11:22:42;;;;;;;;;7.67;3.67;;;;;25.02;39.11;101448.78;5091353;28;45369;-69
2022/08/20 11:25:08;;;;;;;;;3.00;2.00;;;;;24.97;38.84;101445.25;5090470;28;45497;-69
2022/08/20 11:27:37;;;;;;;;;3.67;2.67;;;;;24.69;39.11;101390.31;5090368;27;45205;-69
2022/08/20 11:30:04;;;;;;;;;3.33;3.00;;;;;25.04;38.73;101433.22;5092614;27;45607;-69
2022/08/20 11:32:30;;;;;;;;;2.67;2.67;;;;;24.92;39.19;101395.25;5092522;27;45067;-69
2022/08/20 11:34:55;;;;;;;;;3.00;2.00;;;;;24.88;38.15;101391.69;5087872;27;45550;-69